createdAt,value
2022-10-19T00:00:40.413Z,3.33
2022-10-19T00:03:29.384Z,2.67
2022-10-19T00:05:57.697Z,3.00
2022-10-19T00:08:26.338Z,3.37
2022-10-19T00:10:57.251Z,3.17
2022-10-19T00:13:25.675Z,2.70
2022-10-19T00:15:59.646Z,2.80
2022-10-19T00:18:28.163Z,2.40
2022-10-19T00:21:07.204Z,3.03
2022-10-19T00:23:58.165Z,2.97
2022-10-19T00:26:31.860Z,3.30
2022-10-19T00:29:00.677Z,3.20
2022-10-19T00:31:36.667Z,3.43
2022-10-19T00:34:05.496Z,3.23
2022-10-19T00:36:34.795Z,3.13
2022-10-19T00:39:08.317Z,3.30
2022-10-19T00:41:38.981Z,3.73
2022-10-19T00:44:08.481Z,3.00
2022-10-19T00:46:37.765Z,3.50
2022-10-19T00:49:10.878Z,3.80
2022-10-19T00:51:42.283Z,3.50
2022-10-19T00:54:11.545Z,3.47
2022-10-19T00:56:52.154Z,3.23
2022-10-19T00:59:25.077Z,3.53
2022-10-19T01:01:55.799Z,3.27
2022-10-19T01:04:27.846Z,3.03
2022-10-19T01:06:56.479Z,2.47
2022-10-19T01:09:26.104Z,3.20
2022-10-19T01:12:01.689Z,2.97
2022-10-19T01:14:38.150Z,2.67
2022-10-19T01:17:13.086Z,2.47
2022-10-19T01:19:59.479Z,2.90
2022-10-19T01:22:36.878Z,2.83
2022-10-19T01:25:30.471Z,2.73
2022-10-19T01:28:05.257Z,2.23
2022-10-19T01:30:42.145Z,2.70
2022-10-19T01:33:20.545Z,2.50
2022-10-19T01:35:52.535Z,2.60
2022-10-19T01:38:26.931Z,2.77
2022-10-19T01:41:01.594Z,2.83
2022-10-19T01:43:36.762Z,2.50
2022-10-19T01:46:09.102Z,2.77
2022-10-19T01:48:41.197Z,2.60
2022-10-19T01:51:18.528Z,2.57
2022-10-19T01:53:49.469Z,2.80
2022-10-19T01:56:21.252Z,2.50
2022-10-19T01:58:51.578Z,2.47
2022-10-19T02:01:23.840Z,2.47
2022-10-19T02:03:53.661Z,3.03
2022-10-19T02:06:23.572Z,3.00
2022-10-19T02:08:53.589Z,2.73
2022-10-19T02:11:24.330Z,2.70
2022-10-19T02:13:54.783Z,2.50
2022-10-19T02:16:34.897Z,3.30
2022-10-19T02:19:05.088Z,3.10
2022-10-19T02:21:34.807Z,3.00
2022-10-19T02:24:03.270Z,3.20
2022-10-19T02:26:33.592Z,3.50
2022-10-19T02:29:03.025Z,3.13
2022-10-19T02:31:36.876Z,3.63
2022-10-19T02:34:08.276Z,3.90
2022-10-19T02:36:38.979Z,4.10
2022-10-19T02:39:12.528Z,4.13
2022-10-19T02:41:43.432Z,3.50
2022-10-19T02:44:16.021Z,4.60
2022-10-19T02:46:46.572Z,3.80
2022-10-19T02:49:15.296Z,4.40
2022-10-19T02:52:00.732Z,3.73
2022-10-19T02:54:29.254Z,4.83
2022-10-19T02:57:04.854Z,4.30
2022-10-19T02:59:39.308Z,4.33
2022-10-19T03:02:10.350Z,4.70
2022-10-19T03:04:41.200Z,4.43
2022-10-19T03:07:15.540Z,4.47
2022-10-19T03:09:47.331Z,4.27
2022-10-19T03:12:19.161Z,4.47
2022-10-19T03:14:47.571Z,4.87
2022-10-19T03:17:17.563Z,4.73
2022-10-19T03:19:47.762Z,4.30
2022-10-19T03:22:16.272Z,4.67
2022-10-19T03:24:44.880Z,4.57
2022-10-19T03:27:13.624Z,4.90
2022-10-19T03:29:44.529Z,4.70
2022-10-19T03:32:13.458Z,5.07
2022-10-19T03:34:45.452Z,5.13
2022-10-19T03:37:15.584Z,5.43
2022-10-19T03:39:45.168Z,4.80
2022-10-19T03:42:13.888Z,5.00
2022-10-19T03:44:43.396Z,4.77
2022-10-19T03:47:12.018Z,5.17
2022-10-19T03:49:40.503Z,4.80
2022-10-19T03:52:11.130Z,4.90
2022-10-19T03:54:39.835Z,4.77
2022-10-19T03:57:10.481Z,3.90
2022-10-19T03:59:39.177Z,4.30
2022-10-19T04:02:10.308Z,4.33
2022-10-19T04:04:40.152Z,4.40
2022-10-19T04:07:15.981Z,4.23
2022-10-19T04:09:47.194Z,3.93
2022-10-19T04:12:18.512Z,4.20
2022-10-19T04:14:57.464Z,4.07
2022-10-19T04:17:27.517Z,4.53
2022-10-19T04:19:56.560Z,4.47
2022-10-19T04:22:27.638Z,4.60
2022-10-19T04:24:56.366Z,3.90
2022-10-19T04:27:25.774Z,4.70
2022-10-19T04:29:56.097Z,4.43
2022-10-19T04:32:24.696Z,4.73
2022-10-19T04:34:52.992Z,4.40
2022-10-19T04:37:21.283Z,4.20
2022-10-19T04:39:50.918Z,4.00
2022-10-19T04:42:19.242Z,4.07
2022-10-19T04:44:47.551Z,3.90
2022-10-19T04:47:15.997Z,4.23
2022-10-19T04:49:44.273Z,3.83
2022-10-19T04:52:12.803Z,3.50
2022-10-19T04:54:42.082Z,3.83
2022-10-19T04:57:11.866Z,3.23
2022-10-19T04:59:40.125Z,3.53
2022-10-19T05:02:08.381Z,3.53
2022-10-19T05:04:36.720Z,3.40
2022-10-19T05:07:05.075Z,3.23
2022-10-19T05:09:33.312Z,3.27
2022-10-19T05:12:01.641Z,3.47
2022-10-19T05:14:31.331Z,2.97
2022-10-19T05:16:59.787Z,3.33
2022-10-19T05:19:28.143Z,3.33
2022-10-19T05:21:56.375Z,3.27
2022-10-19T05:24:24.927Z,3.20
2022-10-19T05:26:53.220Z,3.10
2022-10-19T05:29:21.513Z,3.20
2022-10-19T05:31:51.287Z,3.10
2022-10-19T05:34:19.687Z,2.97
2022-10-19T05:36:47.952Z,3.10
2022-10-19T05:39:17.038Z,2.80
2022-10-19T05:41:45.381Z,2.80
2022-10-19T05:44:15.499Z,3.07
2022-10-19T05:46:43.799Z,2.90
2022-10-19T05:49:14.149Z,3.27
2022-10-19T05:51:42.424Z,3.00
2022-10-19T05:54:11.702Z,2.97
2022-10-19T05:56:40.075Z,3.43
2022-10-19T05:59:09.206Z,3.20
2022-10-19T06:01:37.472Z,3.27
2022-10-19T06:04:07.388Z,3.60
2022-10-19T06:06:37.059Z,3.80
2022-10-19T06:09:05.498Z,3.47
2022-10-19T06:11:35.558Z,3.23
2022-10-19T06:14:05.211Z,3.00
2022-10-19T06:16:33.563Z,2.90
2022-10-19T06:19:02.015Z,2.90
2022-10-19T06:21:31.230Z,2.93
2022-10-19T06:24:02.341Z,2.37
2022-10-19T06:26:31.406Z,2.73
2022-10-19T06:29:00.549Z,2.90
2022-10-19T06:31:29.128Z,3.00
2022-10-19T06:33:57.714Z,2.43
2022-10-19T06:36:26.904Z,2.87
2022-10-19T06:38:56.516Z,2.73
2022-10-19T06:41:26.160Z,3.13
2022-10-19T06:43:54.824Z,2.97
2022-10-19T06:46:24.485Z,2.97
2022-10-19T06:48:53.566Z,3.10
2022-10-19T06:51:22.282Z,3.03
2022-10-19T06:53:52.950Z,2.93
2022-10-19T06:56:26.637Z,3.07
2022-10-19T06:58:55.397Z,3.07
2022-10-19T07:01:24.195Z,3.03
2022-10-19T07:03:52.908Z,3.30
2022-10-19T07:06:21.496Z,2.50
2022-10-19T07:08:50.264Z,3.17
2022-10-19T07:11:19.784Z,2.53
2022-10-19T07:13:49.661Z,2.93
2022-10-19T07:16:21.215Z,3.30
2022-10-19T07:18:50.303Z,2.83
2022-10-19T07:21:19.182Z,4.33
2022-10-19T07:23:48.408Z,2.77
2022-10-19T07:26:17.626Z,2.73
2022-10-19T07:28:46.968Z,3.00
2022-10-19T07:31:19.069Z,2.90
2022-10-19T07:33:47.362Z,2.93
2022-10-19T07:36:15.615Z,3.30
2022-10-19T07:38:44.000Z,2.67
2022-10-19T07:41:13.774Z,3.07
2022-10-19T07:43:42.378Z,2.60
2022-10-19T07:46:12.997Z,2.67
2022-10-19T07:48:42.889Z,2.80
2022-10-19T07:51:11.852Z,2.80
2022-10-19T07:53:40.558Z,2.80
2022-10-19T07:56:10.239Z,2.60
2022-10-19T07:58:39.035Z,3.30
2022-10-19T08:01:08.209Z,2.50
2022-10-19T08:06:27.292Z,2.60
2022-10-19T08:08:56.451Z,2.70
2022-10-19T08:11:26.543Z,3.30
2022-10-19T08:13:55.088Z,2.70
2022-10-19T08:16:24.982Z,2.77
2022-10-19T08:18:53.994Z,2.70
2022-10-19T08:21:22.307Z,3.10
2022-10-19T08:23:52.166Z,2.83
2022-10-19T08:26:20.465Z,2.63
2022-10-19T08:28:48.750Z,2.83
2022-10-19T08:31:17.738Z,2.67
2022-10-19T08:33:46.383Z,3.23
2022-10-19T08:36:16.282Z,2.37
2022-10-19T08:38:45.222Z,2.67
2022-10-19T08:41:34.540Z,2.87
2022-10-19T08:44:14.857Z,2.30
2022-10-19T08:46:48.748Z,2.60
2022-10-19T08:49:19.905Z,2.47
2022-10-19T08:51:51.298Z,2.47
2022-10-19T08:54:20.047Z,2.40
2022-10-19T08:56:51.903Z,1.80
2022-10-19T08:59:28.564Z,2.27
2022-10-19T09:01:58.070Z,2.07
2022-10-19T09:04:27.893Z,1.90
2022-10-19T09:07:15.636Z,1.80
2022-10-19T09:12:15.590Z,2.07
2022-10-19T09:14:49.264Z,1.37
2022-10-19T09:17:18.093Z,2.10
2022-10-19T09:19:46.642Z,1.50
2022-10-19T09:22:19.125Z,1.70
2022-10-19T09:24:51.085Z,1.30
2022-10-19T09:27:22.555Z,1.77
2022-10-19T09:29:56.050Z,1.47
2022-10-19T09:32:26.524Z,1.73
2022-10-19T09:34:55.849Z,1.33
2022-10-19T09:37:26.522Z,1.40
2022-10-19T09:39:56.163Z,1.70
2022-10-19T09:42:26.348Z,1.63
2022-10-19T09:44:56.260Z,1.80
2022-10-19T09:47:33.949Z,1.30
2022-10-19T09:50:10.171Z,1.43
2022-10-19T09:52:39.855Z,1.27
2022-10-19T09:55:09.281Z,1.70
2022-10-19T09:57:43.224Z,1.20
2022-10-19T10:00:20.337Z,1.33
2022-10-19T10:02:52.296Z,1.13
2022-10-19T10:05:21.341Z,1.50
2022-10-19T10:07:50.228Z,1.20
2022-10-19T10:10:25.655Z,1.30
2022-10-19T10:12:56.812Z,1.40
2022-10-19T10:15:28.477Z,1.47
2022-10-19T10:17:57.587Z,1.30
2022-10-19T10:20:28.514Z,1.83
2022-10-19T10:22:58.511Z,1.03
2022-10-19T10:25:28.457Z,1.27
2022-10-19T10:27:58.264Z,1.33
2022-10-19T10:30:28.677Z,1.20
2022-10-19T10:33:04.702Z,1.37
2022-10-19T10:35:53.661Z,1.23
2022-10-19T10:38:25.206Z,1.13
2022-10-19T10:40:54.554Z,1.30
2022-10-19T10:43:24.162Z,1.50
2022-10-19T10:45:55.485Z,1.30
2022-10-19T10:48:28.855Z,1.30
2022-10-19T10:50:57.515Z,1.40
2022-10-19T10:53:37.148Z,1.50
2022-10-19T10:56:06.096Z,1.20
2022-10-19T10:58:40.754Z,1.90
2022-10-19T11:01:18.006Z,1.50
2022-10-19T11:03:49.480Z,1.27
2022-10-19T11:06:18.929Z,1.00
2022-10-19T11:08:50.440Z,1.30
2022-10-19T11:11:20.634Z,1.50
2022-10-19T11:13:52.170Z,1.20
2022-10-19T11:16:24.736Z,1.27
2022-10-19T11:18:55.558Z,1.23
2022-10-19T11:21:26.495Z,1.20
2022-10-19T11:24:03.106Z,1.80
2022-10-19T11:26:43.193Z,1.30
2022-10-19T11:29:23.611Z,1.20
2022-10-19T11:31:55.279Z,1.53
2022-10-19T11:34:34.493Z,1.10
2022-10-19T11:37:07.875Z,1.50
2022-10-19T11:39:41.667Z,1.33
2022-10-19T11:42:13.251Z,1.50
2022-10-19T11:44:49.808Z,1.10
2022-10-19T11:47:29.504Z,1.40
2022-10-19T11:50:04.036Z,1.67
2022-10-19T11:52:37.002Z,1.10
2022-10-19T11:55:14.078Z,1.20
2022-10-19T11:57:46.634Z,1.47
2022-10-19T12:00:37.647Z,1.40
2022-10-19T12:03:17.145Z,1.27
2022-10-19T12:05:52.336Z,0.93
2022-10-19T12:08:26.370Z,1.07
2022-10-19T12:10:59.220Z,1.20
2022-10-19T12:13:30.276Z,1.50
2022-10-19T12:15:59.824Z,1.20
2022-10-19T12:18:33.735Z,1.50
2022-10-19T12:21:03.984Z,1.30
2022-10-19T12:23:33.808Z,1.50
2022-10-19T12:26:03.663Z,1.60
2022-10-19T12:28:33.711Z,1.40
2022-10-19T12:31:02.998Z,1.70
2022-10-19T12:33:38.182Z,1.53
2022-10-19T12:36:11.101Z,1.90
2022-10-19T12:38:49.382Z,1.73
2022-10-19T12:41:23.673Z,1.80
2022-10-19T12:43:59.700Z,1.77
2022-10-19T12:46:33.107Z,1.70
2022-10-19T12:49:20.241Z,1.70
2022-10-19T12:51:50.049Z,1.90
2022-10-19T12:54:18.453Z,1.87
2022-10-19T12:56:50.758Z,1.87
2022-10-19T12:59:24.253Z,2.00
2022-10-19T13:01:52.926Z,1.63
2022-10-19T13:04:22.422Z,1.90
2022-10-19T13:06:53.027Z,1.70
2022-10-19T13:09:24.607Z,2.03
2022-10-19T13:12:11.569Z,1.83
2022-10-19T13:14:44.138Z,1.33
2022-10-19T13:17:12.482Z,1.37
2022-10-19T13:19:40.752Z,1.47
2022-10-19T13:22:27.057Z,1.53
2022-10-19T13:25:16.212Z,1.50
2022-10-19T13:27:46.385Z,1.60
2022-10-19T13:30:29.488Z,1.60
2022-10-19T13:32:57.888Z,1.60
2022-10-19T13:35:32.501Z,1.40
2022-10-19T13:38:24.407Z,1.63
2022-10-19T13:41:04.323Z,1.93
2022-10-19T13:43:34.930Z,1.57
2022-10-19T13:46:07.012Z,1.90
2022-10-19T13:48:39.926Z,1.77
2022-10-19T13:51:14.621Z,1.70
2022-10-19T13:53:46.242Z,2.00
2022-10-19T13:56:21.207Z,2.00
2022-10-19T13:59:15.235Z,1.80
2022-10-19T14:01:52.738Z,1.90
2022-10-19T14:04:30.377Z,2.03
2022-10-19T14:07:01.881Z,2.20
2022-10-19T14:09:38.278Z,1.87
2022-10-19T14:12:08.793Z,1.93
2022-10-19T14:14:45.293Z,1.93
2022-10-19T14:17:16.353Z,2.33
2022-10-19T14:19:45.897Z,2.20
2022-10-19T14:22:21.094Z,1.92
2022-10-19T14:24:49.422Z,2.10
2022-10-19T14:27:20.161Z,1.67
2022-10-19T14:29:50.586Z,1.60
2022-10-19T14:32:19.494Z,1.90
2022-10-19T14:34:48.805Z,1.73
2022-10-19T14:37:18.971Z,2.03
2022-10-19T14:39:59.305Z,1.90
2022-10-19T14:42:37.165Z,1.60
2022-10-19T14:45:11.798Z,1.87
2022-10-19T14:47:52.236Z,2.50
2022-10-19T14:50:20.968Z,1.90
2022-10-19T14:52:49.929Z,1.83
2022-10-19T14:55:20.296Z,2.50
2022-10-19T14:57:51.050Z,1.83
2022-10-19T15:00:22.091Z,1.83
2022-10-19T15:02:56.342Z,1.93
2022-10-19T15:05:25.781Z,1.60
2022-10-19T15:07:54.839Z,1.80
2022-10-19T15:10:24.814Z,1.60
2022-10-19T15:12:54.476Z,2.00
2022-10-19T15:15:26.514Z,1.93
2022-10-19T15:17:55.527Z,1.73
2022-10-19T15:20:25.768Z,2.00
2022-10-19T15:22:54.132Z,1.23
2022-10-19T15:25:27.619Z,1.30
2022-10-19T15:27:57.650Z,1.80
2022-10-19T15:30:28.989Z,2.03
2022-10-19T15:33:09.737Z,1.90
2022-10-19T15:35:38.904Z,2.00
2022-10-19T15:38:10.096Z,1.87
2022-10-19T15:40:39.804Z,1.90
2022-10-19T15:43:37.764Z,1.93
2022-10-19T15:46:22.574Z,1.83
2022-10-19T15:48:55.177Z,2.60
2022-10-19T15:51:42.842Z,2.20
2022-10-19T15:54:11.454Z,2.33
2022-10-19T15:56:40.521Z,1.80
2022-10-19T15:59:12.718Z,2.10
2022-10-19T16:01:43.143Z,1.60
2022-10-19T16:04:12.043Z,1.70
2022-10-19T16:06:42.334Z,1.83
2022-10-19T16:09:16.511Z,2.00
2022-10-19T16:11:45.216Z,2.03
2022-10-19T16:14:13.500Z,1.73
2022-10-19T16:16:43.404Z,1.97
2022-10-19T16:19:12.648Z,1.80
2022-10-19T16:21:41.641Z,1.60
2022-10-19T16:24:09.906Z,1.90
2022-10-19T16:26:38.175Z,2.00
2022-10-19T16:29:06.423Z,1.80
2022-10-19T16:31:35.028Z,2.20
2022-10-19T16:34:04.700Z,2.22
2022-10-19T16:36:33.020Z,2.60
2022-10-19T16:39:01.675Z,2.30
2022-10-19T16:41:29.987Z,1.90
2022-10-19T16:43:58.577Z,2.50
2022-10-19T16:46:26.941Z,2.33
2022-10-19T16:48:55.626Z,2.10
2022-10-19T16:51:32.752Z,2.50
2022-10-19T16:54:02.633Z,2.43
2022-10-19T16:56:32.031Z,2.00
2022-10-19T16:59:01.097Z,2.00
2022-10-19T17:01:30.789Z,2.17
2022-10-19T17:03:59.318Z,1.73
2022-10-19T17:06:28.314Z,1.90
2022-10-19T17:11:47.478Z,1.80
2022-10-19T17:14:16.189Z,1.90
2022-10-19T17:16:44.493Z,2.23
2022-10-19T17:19:14.587Z,1.80
2022-10-19T17:21:42.979Z,2.53
2022-10-19T17:24:18.469Z,1.80
2022-10-19T17:26:51.485Z,2.30
2022-10-19T17:29:19.864Z,1.80
2022-10-19T17:31:48.416Z,1.77
2022-10-19T17:34:17.257Z,2.10
2022-10-19T17:36:46.727Z,1.80
2022-10-19T17:39:17.671Z,2.00
2022-10-19T17:41:46.212Z,2.10
2022-10-19T17:44:16.101Z,2.13
2022-10-19T17:46:44.633Z,2.00
2022-10-19T17:49:13.157Z,1.87
2022-10-19T17:51:41.787Z,2.13
2022-10-19T17:54:11.551Z,1.93
2022-10-19T17:56:41.787Z,2.13
2022-10-19T17:59:10.223Z,2.07
2022-10-19T18:01:39.908Z,2.10
2022-10-19T18:04:08.081Z,2.10
2022-10-19T18:06:37.170Z,2.30
2022-10-19T18:09:15.696Z,2.40
2022-10-19T18:11:45.391Z,2.23
2022-10-19T18:14:17.275Z,2.10
2022-10-19T18:16:53.782Z,2.60
2022-10-19T18:19:27.020Z,2.43
2022-10-19T18:22:01.019Z,2.50
2022-10-19T18:25:21.840Z,2.90
2022-10-19T18:27:54.593Z,2.83
2022-10-19T18:30:23.654Z,2.87
2022-10-19T18:32:56.681Z,3.37
2022-10-19T18:35:27.900Z,2.83
2022-10-19T18:37:56.776Z,3.20
2022-10-19T18:40:25.498Z,3.00
2022-10-19T18:42:55.586Z,2.80
2022-10-19T18:45:24.192Z,3.30
2022-10-19T18:47:56.337Z,2.80
2022-10-19T18:50:28.713Z,3.50
2022-10-19T18:52:57.644Z,3.23
2022-10-19T18:55:27.279Z,3.50
2022-10-19T18:57:56.667Z,3.20
2022-10-19T19:00:25.510Z,3.33
2022-10-19T19:03:06.053Z,3.20
2022-10-19T19:05:36.402Z,3.20
2022-10-19T19:08:04.953Z,3.10
2022-10-19T19:10:33.344Z,2.90
2022-10-19T19:13:03.771Z,3.17
2022-10-19T19:15:33.382Z,3.60
2022-10-19T19:18:08.264Z,3.63
2022-10-19T19:20:39.245Z,2.80
2022-10-19T19:23:09.434Z,3.40
2022-10-19T19:25:43.546Z,3.50
2022-10-19T19:28:13.439Z,3.80
2022-10-19T19:30:43.074Z,3.60
2022-10-19T19:33:14.329Z,3.27
2022-10-19T19:35:48.243Z,3.37
2022-10-19T19:38:17.553Z,3.27
2022-10-19T19:40:49.262Z,3.40
2022-10-19T19:43:20.293Z,3.90
2022-10-19T19:45:59.381Z,3.60
2022-10-19T19:48:42.448Z,3.30
2022-10-19T19:51:11.275Z,3.60
2022-10-19T19:53:39.886Z,3.73
2022-10-19T19:56:14.183Z,3.63
2022-10-19T19:58:42.883Z,3.03
2022-10-19T20:01:13.867Z,3.77
2022-10-19T20:03:46.617Z,3.70
2022-10-19T20:06:19.582Z,4.10
2022-10-19T20:08:52.345Z,3.83
2022-10-19T20:11:22.321Z,3.93
2022-10-19T20:13:55.891Z,3.47
2022-10-19T20:16:35.076Z,3.77
2022-10-19T20:19:28.202Z,3.60
2022-10-19T20:22:09.553Z,3.90
2022-10-19T20:25:31.617Z,3.93
2022-10-19T20:28:28.285Z,3.63
2022-10-19T20:31:08.682Z,4.60
2022-10-19T20:33:39.921Z,3.80
2022-10-19T20:36:39.181Z,3.87
2022-10-19T20:39:32.832Z,4.13
2022-10-19T20:42:16.290Z,3.83
2022-10-19T20:44:48.475Z,4.93
2022-10-19T20:47:19.574Z,4.40
2022-10-19T20:50:10.426Z,3.80
2022-10-19T21:03:09.820Z,4.10
2022-10-19T21:05:57.185Z,4.07
2022-10-19T21:08:36.586Z,3.87
2022-10-19T21:11:21.467Z,4.10
2022-10-19T21:14:01.502Z,4.23
2022-10-19T21:16:45.049Z,3.53
2022-10-19T21:19:18.338Z,3.90
2022-10-19T21:21:56.477Z,3.87
2022-10-19T21:24:37.484Z,4.23
2022-10-19T21:27:12.174Z,4.40
2022-10-19T21:30:07.728Z,3.83
2022-10-19T21:45:53.543Z,3.47
2022-10-19T21:48:26.702Z,3.80
2022-10-19T21:50:56.086Z,4.53
2022-10-19T21:53:29.702Z,3.63
2022-10-19T21:56:20.020Z,4.10
2022-10-19T21:59:09.767Z,3.60
2022-10-19T22:01:42.216Z,4.10
2022-10-19T22:04:19.252Z,3.70
2022-10-19T22:14:21.486Z,3.40
2022-10-19T22:16:53.946Z,3.80
2022-10-19T22:19:26.567Z,3.90
2022-10-19T22:21:56.230Z,3.93
2022-10-19T22:24:24.779Z,4.40
2022-10-19T22:26:59.890Z,4.23
2022-10-19T22:29:45.112Z,4.17
2022-10-19T22:32:17.592Z,4.30
2022-10-19T22:34:49.616Z,3.90
2022-10-19T22:37:20.590Z,3.70
2022-10-19T22:40:13.181Z,4.23
2022-10-19T22:43:45.031Z,4.27
2022-10-19T22:46:13.857Z,4.20
2022-10-19T22:56:12.359Z,4.33
2022-10-19T22:58:42.781Z,4.90
2022-10-19T23:01:19.494Z,4.10
2022-10-19T23:03:50.222Z,4.20
2022-10-19T23:06:19.058Z,4.27
2022-10-19T23:19:32.098Z,5.07
2022-10-19T23:22:06.110Z,5.27
2022-10-19T23:24:43.482Z,4.80
2022-10-19T23:27:22.278Z,4.80
2022-10-19T23:29:51.012Z,4.77
2022-10-19T23:32:20.152Z,5.00
2022-10-19T23:34:49.865Z,4.90
2022-10-19T23:37:20.137Z,5.20
2022-10-19T23:39:51.213Z,5.10
2022-10-19T23:42:32.609Z,4.93
2022-10-19T23:45:25.888Z,5.10
2022-10-19T23:47:59.701Z,5.60
2022-10-19T23:50:35.648Z,5.70
2022-10-19T23:53:14.090Z,5.57
2022-10-19T23:56:11.727Z,5.67
2022-10-19T23:58:40.205Z,5.47
